Accueil
METAR-TAF:

METAR-TAF

Aéroports :

Holzdorf, Allemagne

latitude: 51-46N, longitude: 013-11E, altitude: 79 m

Observation

Le bulletin a été fait il y a 49 minutes, à 15:20 UTC
Vent 7 kt de nord/nord-est
Température 25°C
Humidité 34%
Pression 1013 hPa
Visibilité 10 km ou plus
Nuages épars à une hauteur de 7500 ft, Cumulus congestus.
averses à proximité

METAR: ETSH 021520Z 03007KT 9999 VCSH SCT075TCU 25/08 Q1013 BLU+

Heure: 18:09 (16:09 UTC)

Prévision

Le bulletin a été fait il y a 3 heures et 8 minutes, à 13:01 UTC
Prévision valable du 02 à 14 UTC au 02 à 23 UTC
Vent 8 kt de nord
Visibilité 10 km ou plus
Nuages épars à une hauteur de 7000 ft

TAF: ETSH 021301Z 0214/0223 36008KT 9999 NSW SCT070

Observations et prévisions météorologiques de plus de 4000 aéroports (messages METAR et TAF).

Les stations disponibles sont représentées par des disques jaunes et rouges sur la carte.

Passer la souris dessus pour voir le nom de la station.

Cliquer dessus pour voir les observations et prévisions météorologiques.

Pour changer de carte: cliquez sur les boutons verts avec une croix noire pour zoomer, sur le bouton vert avec un tiret pour effectuer un zoom arrière, ou sur les flèches vertes pour les cartes adjacentes.


METAR-TAF: